Bartow, FL

5:44 PM EDT on September 20, 2014 (GMT -0400)
Oakview Lakes on Peace River | Change Station
CLOSE
Current Station
Personal Weather Station
Location: Fort Meade, FL
Elevation: 131 ft
Nearby Weather Stations

Elev 131 ft 27.74 °N, 81.79 °W | Updated 0 second ago

Mostly Cloudy
Mostly Cloudy
84.9 °F
Feels Like 92 °F
N
1.0
Wind Variable Wind from West
Gusts 4.0 mph

Today
High -- | Low -- °F
--% Chance of Precip.
Yesterday
High -- | Low -- °F
Precip. -- in
7:14 AM 7:26 PM
Waning Crescent, 10% visible
Pressure 29.90 in
Visibility 10.0 miles
Clouds Few 3100 ft
Heat Index 92 °F
Dew Point 74 °F
Humidity 69%
Rainfall 0.25 in
Snow Depth Not available.
UV 2 out of 12
Pollen 4.20 out of 12
Ozone Good
Flu Activity Not available.
METAR KBOW 202135Z AUTO 26004KT 10SM FEW031 28/20 A2990 RMK AO2

More Conditions Fewer Conditions

Pressure 29.90 in
Visibility 10.0 miles
Clouds Few 3100 ft
Heat Index 92 °F
Dew Point 74 °F
Humidity 69%
Rainfall 0.25 in
Snow Depth Not available.
UV 2 out of 12
Pollen 4.20 out of 12
Ozone Good
Flu Activity Not available.
METAR KBOW 202135Z AUTO 26004KT 10SM FEW031 28/20 A2990 RMK AO2

More Conditions Fewer Conditions

10-Day Weather Forecast

Almanac

Astronomy

Sep. 20, 2014 Rise Set
Actual Time 7:14 AM EDT 7:26 PM EDT
Civil Twilight 6:51 AM EDT 7:49 PM EDT
Nautical Twilight 6:24 AM EDT 8:16 PM EDT
Astronomical Twilight 5:56 AM EDT 8:44 PM EDT
Moon 4:06 AM EDT 5:17 PM EDT
Length of Visible Light 12h 58m
Length of Day
12h 11m
Tomorrow will be 1m 40s shorter.
Waning Crescent, 10% of the Moon is Illuminated
Today
Waning Crescent
Sep 24
New
Oct 1
First Quarter
Oct 8
Full
Oct 15
Last Quarter

Today's Extremes

State Highs State Lows

Community

WunderPhotos

Upload Photos

1,754,962 photos uploaded!

WunderBlogs® & News

Nearby

Air Quality

  Air Quality AQ Index Pollutant
Yesterday Good
OZONE
Yesterday Good
PM10
Current Good
OZONE
Saturday Good
PM2.5
Saturday Good
OZONE
Sunday Good
PM2.5
Sunday Good
OZONE
Monday Good
PM2.5
Monday Good
OZONE

Snow Depth

Station Depth Elevation
No new snow has been reported.

Earthquake Activity

City Distance Mag. Time & Date
No recent earthquake activity has been reported nearby.
Minimum magnitude displayed is 2.5.

Coastal Water Temperatures

Place Temperature
No Stations Reporting

Nearby Weather Stations